createdAt,value
2019-03-10T00:00:57.506Z,11.70
2019-03-10T00:03:27.365Z,11.40
2019-03-10T00:05:58.601Z,11.00
2019-03-10T00:08:28.342Z,11.00
2019-03-10T00:10:57.971Z,11.30
2019-03-10T00:13:27.718Z,10.80
2019-03-10T00:15:58.410Z,11.20
2019-03-10T00:18:28.230Z,11.50
2019-03-10T00:20:59.827Z,11.50
2019-03-10T00:23:29.743Z,10.70
2019-03-10T00:26:01.790Z,11.10
2019-03-10T00:28:31.551Z,11.80
2019-03-10T00:31:01.303Z,11.70
2019-03-10T00:33:31.435Z,11.10
2019-03-10T00:36:01.314Z,11.50
2019-03-10T00:39:00.923Z,11.70
2019-03-10T00:42:10.272Z,11.90
2019-03-10T00:45:02.694Z,11.90
2019-03-10T00:48:00.439Z,11.50
2019-03-10T00:51:26.102Z,11.20
2019-03-10T00:53:56.383Z,11.90
2019-03-10T00:56:26.065Z,12.30
2019-03-10T00:58:56.861Z,11.70
2019-03-10T01:01:27.151Z,11.70
2019-03-10T01:03:56.796Z,11.00
2019-03-10T01:06:27.816Z,10.50
2019-03-10T01:08:57.512Z,10.70
2019-03-10T01:11:27.411Z,11.20
2019-03-10T01:13:57.063Z,11.10
2019-03-10T01:16:27.199Z,10.90
2019-03-10T01:18:57.571Z,11.30
2019-03-10T01:21:28.348Z,11.50
2019-03-10T01:23:59.117Z,12.00
2019-03-10T01:26:29.135Z,11.80
2019-03-10T01:29:00.171Z,11.70
2019-03-10T01:31:51.343Z,11.50
2019-03-10T01:34:49.207Z,11.30
2019-03-10T01:37:18.960Z,11.20
2019-03-10T01:39:49.868Z,11.20
2019-03-10T01:42:19.481Z,10.90
2019-03-10T01:44:49.023Z,11.10
2019-03-10T01:47:20.589Z,11.00
2019-03-10T01:49:54.208Z,11.20
2019-03-10T01:52:23.743Z,11.90
2019-03-10T01:54:55.439Z,12.00
2019-03-10T01:57:25.219Z,11.60
2019-03-10T01:59:55.090Z,11.60
2019-03-10T02:02:25.935Z,11.30
2019-03-10T02:04:55.873Z,11.00
2019-03-10T02:07:25.740Z,11.20
2019-03-10T02:09:55.523Z,11.90
2019-03-10T02:12:26.599Z,11.80
2019-03-10T02:14:58.237Z,11.50
2019-03-10T02:17:28.431Z,11.40
2019-03-10T02:19:58.120Z,11.70
2019-03-10T02:22:27.821Z,12.10
2019-03-10T02:24:57.492Z,12.30
2019-03-10T02:27:27.152Z,12.50
2019-03-10T02:29:56.805Z,11.80
2019-03-10T02:32:28.247Z,11.90
2019-03-10T02:34:58.019Z,12.30
2019-03-10T02:37:27.747Z,12.30
2019-03-10T02:40:00.061Z,12.20
2019-03-10T02:42:31.610Z,11.90
2019-03-10T02:45:03.094Z,12.00
2019-03-10T02:47:32.867Z,11.30
2019-03-10T02:50:03.670Z,11.00
2019-03-10T02:52:35.385Z,11.60
2019-03-10T02:55:06.581Z,11.70
2019-03-10T02:57:36.227Z,11.60
2019-03-10T03:00:09.666Z,11.10
2019-03-10T03:02:39.454Z,10.90
2019-03-10T03:05:10.991Z,11.00
2019-03-10T03:07:41.844Z,11.00
2019-03-10T03:10:13.500Z,11.30
2019-03-10T03:12:43.185Z,11.50
2019-03-10T03:15:12.916Z,11.90
2019-03-10T03:17:43.131Z,11.60
2019-03-10T03:20:12.946Z,11.10
2019-03-10T03:22:42.750Z,10.60
2019-03-10T03:25:12.528Z,10.50
2019-03-10T03:27:42.405Z,10.70
2019-03-10T03:30:14.460Z,10.40
2019-03-10T03:32:45.171Z,11.10
2019-03-10T03:35:56.543Z,11.60
2019-03-10T03:38:32.860Z,12.10
2019-03-10T03:41:07.624Z,10.60
2019-03-10T03:43:38.781Z,11.00
2019-03-10T03:46:10.330Z,11.00
2019-03-10T03:48:39.959Z,10.20
2019-03-10T03:51:09.679Z,10.00
2019-03-10T03:53:39.482Z,10.60
2019-03-10T03:56:09.379Z,11.00
2019-03-10T03:58:39.140Z,11.60
2019-03-10T04:01:15.257Z,11.20
2019-03-10T04:03:44.996Z,10.20
2019-03-10T04:06:15.161Z,10.70
2019-03-10T04:08:44.907Z,10.50
2019-03-10T04:11:14.588Z,10.60
2019-03-10T04:13:44.507Z,11.50
2019-03-10T04:16:14.552Z,12.10
2019-03-10T04:18:44.244Z,12.10
2019-03-10T04:21:13.822Z,12.00
2019-03-10T04:23:45.962Z,12.20
2019-03-10T04:26:16.574Z,12.30
2019-03-10T04:28:46.516Z,12.40
2019-03-10T04:31:16.116Z,12.40
2019-03-10T04:33:46.391Z,12.40
2019-03-10T04:36:17.231Z,12.50
2019-03-10T04:38:47.488Z,12.50
2019-03-10T04:41:18.199Z,12.80
2019-03-10T04:43:49.662Z,12.90
2019-03-10T04:46:19.460Z,12.70
2019-03-10T04:48:49.243Z,12.10
2019-03-10T04:51:18.984Z,11.90
2019-03-10T04:53:48.667Z,11.70
2019-03-10T04:56:31.996Z,12.00
2019-03-10T04:59:07.022Z,12.00
2019-03-10T05:01:38.747Z,11.90
2019-03-10T05:04:08.784Z,12.00
2019-03-10T05:06:39.651Z,11.30
2019-03-10T05:09:11.012Z,11.10
2019-03-10T05:11:40.686Z,11.20
2019-03-10T05:14:12.235Z,11.40
2019-03-10T05:16:42.990Z,11.50
2019-03-10T05:19:14.385Z,11.70
2019-03-10T05:21:44.095Z,11.20
2019-03-10T05:24:15.449Z,11.20
2019-03-10T05:26:45.015Z,10.80
2019-03-10T05:29:15.871Z,11.20
2019-03-10T05:31:47.295Z,11.10
2019-03-10T05:34:18.110Z,11.30
2019-03-10T05:36:47.679Z,10.80
2019-03-10T05:39:17.460Z,10.90
2019-03-10T05:41:47.044Z,11.10
2019-03-10T05:44:17.636Z,10.90
2019-03-10T05:46:49.028Z,11.50
2019-03-10T05:49:18.763Z,11.70
2019-03-10T05:51:49.491Z,11.90
2019-03-10T05:54:20.965Z,12.00
2019-03-10T05:56:50.624Z,12.10
2019-03-10T05:59:21.471Z,12.30
2019-03-10T06:01:52.179Z,11.40
2019-03-10T06:04:22.088Z,11.40
2019-03-10T06:06:53.274Z,10.40
2019-03-10T06:09:22.950Z,10.90
2019-03-10T06:11:53.051Z,11.40
2019-03-10T06:14:23.214Z,11.40
2019-03-10T06:16:52.842Z,11.40
2019-03-10T06:19:23.723Z,11.20
2019-03-10T06:21:53.475Z,11.50
2019-03-10T06:24:23.654Z,10.60
2019-03-10T06:26:54.663Z,10.60
2019-03-10T06:31:54.855Z,9.40
2019-03-10T06:34:24.405Z,10.20
2019-03-10T06:36:54.031Z,9.70
2019-03-10T06:39:27.087Z,10.20
2019-03-10T06:41:57.033Z,10.60
2019-03-10T06:44:26.756Z,11.40
2019-03-10T06:46:57.819Z,11.40
2019-03-10T06:49:27.366Z,11.30
2019-03-10T06:51:57.265Z,11.00
2019-03-10T06:54:27.358Z,11.30
2019-03-10T06:56:57.069Z,11.90
2019-03-10T06:59:26.853Z,11.30
2019-03-10T07:02:00.209Z,10.90
2019-03-10T07:04:31.628Z,11.10
2019-03-10T07:07:01.313Z,11.10
2019-03-10T07:09:30.874Z,10.70
2019-03-10T07:12:00.682Z,10.70
2019-03-10T07:14:30.560Z,11.10
2019-03-10T07:17:02.016Z,10.80
2019-03-10T07:19:31.599Z,10.40
2019-03-10T07:22:02.331Z,10.10
2019-03-10T07:24:33.302Z,10.80
2019-03-10T07:27:04.072Z,11.00
2019-03-10T07:29:43.667Z,11.30
2019-03-10T07:32:32.860Z,11.70
2019-03-10T07:35:30.664Z,11.50
2019-03-10T07:38:17.887Z,11.80
2019-03-10T07:40:53.921Z,9.90
2019-03-10T07:43:33.382Z,9.70
2019-03-10T07:46:31.039Z,10.10
2019-03-10T07:49:12.699Z,11.00
2019-03-10T07:51:54.868Z,11.10
2019-03-10T07:57:30.517Z,10.60
2019-03-10T08:00:19.199Z,10.00
2019-03-10T08:03:08.502Z,9.70
2019-03-10T08:05:57.602Z,10.50
2019-03-10T08:08:37.983Z,10.30
2019-03-10T08:14:27.019Z,10.70
2019-03-10T08:17:19.023Z,10.20
2019-03-10T08:20:08.484Z,10.00
2019-03-10T08:23:04.011Z,11.00
2019-03-10T08:25:43.526Z,11.70
2019-03-10T08:28:48.165Z,11.20
2019-03-10T08:31:32.726Z,10.80
2019-03-10T08:34:17.422Z,11.60
2019-03-10T08:37:04.685Z,12.00
2019-03-10T08:39:47.723Z,11.60
2019-03-10T08:42:28.560Z,11.80
2019-03-10T08:45:13.543Z,12.30
2019-03-10T08:47:49.135Z,12.40
2019-03-10T08:50:40.987Z,12.20
2019-03-10T08:53:16.881Z,11.50
2019-03-10T08:55:58.483Z,11.40
2019-03-10T08:58:37.189Z,11.30
2019-03-10T09:01:35.929Z,11.30
2019-03-10T09:04:33.711Z,11.50
2019-03-10T09:07:32.991Z,11.80
2019-03-10T09:10:30.385Z,11.90
2019-03-10T09:13:05.134Z,12.00
2019-03-10T09:15:52.645Z,11.90
2019-03-10T09:18:53.841Z,11.70
2019-03-10T09:21:43.949Z,11.20
2019-03-10T09:24:38.688Z,10.90
2019-03-10T09:27:33.767Z,11.60
2019-03-10T09:30:22.643Z,12.20
2019-03-10T09:33:23.121Z,12.80
2019-03-10T09:36:27.456Z,13.20
2019-03-10T09:39:25.453Z,13.00
2019-03-10T09:42:20.369Z,11.50
2019-03-10T09:45:08.340Z,12.00
2019-03-10T09:48:07.135Z,11.30
2019-03-10T09:51:04.966Z,11.70
2019-03-10T09:54:01.162Z,10.80
2019-03-10T09:56:59.950Z,10.80
2019-03-10T09:59:51.798Z,10.60
2019-03-10T10:02:39.027Z,11.20
2019-03-10T10:05:35.256Z,10.90
2019-03-10T10:08:23.706Z,10.70
2019-03-10T10:11:24.357Z,10.60
2019-03-10T10:14:13.099Z,10.80
2019-03-10T10:17:20.156Z,11.10
2019-03-10T10:20:14.504Z,10.90
2019-03-10T10:23:02.009Z,11.10
2019-03-10T10:25:42.330Z,10.80
2019-03-10T10:28:20.162Z,10.90
2019-03-10T10:31:07.507Z,11.00
2019-03-10T10:34:02.044Z,11.20
2019-03-10T10:36:56.638Z,12.10
2019-03-10T10:39:44.048Z,12.70
2019-03-10T10:42:21.419Z,13.00
2019-03-10T10:45:22.412Z,13.10
2019-03-10T10:48:10.903Z,12.90
2019-03-10T10:51:02.632Z,13.20
2019-03-10T10:59:35.239Z,13.40
2019-03-10T11:02:19.300Z,13.60
2019-03-10T11:04:55.263Z,13.90
2019-03-10T11:07:43.074Z,13.90
2019-03-10T11:10:35.105Z,13.50
2019-03-10T11:13:23.920Z,13.30
2019-03-10T11:16:08.693Z,13.20
2019-03-10T11:18:49.147Z,13.00
2019-03-10T11:21:37.635Z,12.70
2019-03-10T11:24:41.939Z,12.10
2019-03-10T11:41:19.051Z,11.70
2019-03-10T11:43:54.832Z,12.10
2019-03-10T11:46:46.359Z,12.10
2019-03-10T11:52:41.579Z,11.90
2019-03-10T11:55:36.292Z,11.80
2019-03-10T11:58:31.439Z,11.70
2019-03-10T12:01:35.372Z,11.70
2019-03-10T12:04:18.526Z,11.80
2019-03-10T12:06:58.111Z,12.00
2019-03-10T12:11:57.896Z,12.10
2019-03-10T12:14:27.643Z,11.90
2019-03-10T12:16:57.185Z,12.00
2019-03-10T12:19:28.350Z,11.80
2019-03-10T12:21:58.131Z,11.80
2019-03-10T12:24:28.523Z,11.80
2019-03-10T12:26:58.334Z,11.90
2019-03-10T12:29:28.190Z,11.70
2019-03-10T12:31:59.436Z,11.90
2019-03-10T12:34:29.654Z,11.80
2019-03-10T12:37:01.031Z,11.70
2019-03-10T12:39:31.883Z,11.80
2019-03-10T12:42:01.572Z,11.80
2019-03-10T12:44:31.349Z,11.60
2019-03-10T12:49:31.132Z,11.20
2019-03-10T12:52:01.027Z,10.70
2019-03-10T12:54:30.567Z,10.60
2019-03-10T12:57:01.303Z,10.70
2019-03-10T12:59:30.883Z,10.40
2019-03-10T13:02:00.755Z,10.30
2019-03-10T13:04:30.667Z,10.10
2019-03-10T13:07:00.451Z,10.20
2019-03-10T13:09:30.255Z,10.20
2019-03-10T13:11:59.994Z,10.30
2019-03-10T13:14:30.953Z,10.60
2019-03-10T13:17:00.848Z,10.70
2019-03-10T13:19:31.918Z,10.80
2019-03-10T13:22:03.751Z,10.70
2019-03-10T13:24:33.424Z,10.70
2019-03-10T13:27:03.122Z,10.60
2019-03-10T13:29:32.696Z,10.60
2019-03-10T13:32:02.339Z,10.60
2019-03-10T13:34:32.043Z,10.70
2019-03-10T13:37:01.624Z,10.60
2019-03-10T13:39:32.767Z,10.60
2019-03-10T13:42:03.118Z,10.50
2019-03-10T13:44:32.783Z,10.50
2019-03-10T13:47:02.379Z,10.30
2019-03-10T13:49:35.249Z,10.50
2019-03-10T13:52:04.976Z,10.40
2019-03-10T13:54:34.585Z,10.50
2019-03-10T13:57:05.268Z,10.40
2019-03-10T13:59:35.522Z,10.20
2019-03-10T14:02:05.355Z,10.40
2019-03-10T14:04:36.160Z,10.40
2019-03-10T14:07:05.868Z,10.60
2019-03-10T14:09:35.464Z,10.40
2019-03-10T14:12:08.308Z,10.40
2019-03-10T14:14:37.856Z,10.30
2019-03-10T14:17:07.436Z,10.10
2019-03-10T14:19:36.967Z,10.00
2019-03-10T14:22:06.798Z,10.10
2019-03-10T14:24:36.613Z,9.90
2019-03-10T14:27:06.432Z,9.80
2019-03-10T14:29:35.986Z,9.70
2019-03-10T14:32:05.852Z,9.70
2019-03-10T14:34:35.450Z,9.70
2019-03-10T14:37:05.478Z,9.50
2019-03-10T14:39:36.699Z,9.50
2019-03-10T14:42:07.560Z,9.40
2019-03-10T14:44:37.186Z,9.40
2019-03-10T14:47:06.832Z,9.40
2019-03-10T14:49:37.663Z,9.40
2019-03-10T14:52:07.796Z,9.40
2019-03-10T14:54:38.442Z,9.30
2019-03-10T14:57:09.095Z,9.20
2019-03-10T14:59:40.062Z,9.20
2019-03-10T15:02:09.615Z,9.20
2019-03-10T15:04:39.177Z,9.30
2019-03-10T15:07:08.877Z,9.40
2019-03-10T15:09:38.506Z,9.20
2019-03-10T15:12:08.351Z,9.30
2019-03-10T15:14:37.959Z,9.00
2019-03-10T15:17:07.750Z,9.30
2019-03-10T15:19:37.503Z,9.20
2019-03-10T15:22:07.136Z,9.10
2019-03-10T15:24:36.876Z,9.20
2019-03-10T15:27:06.602Z,9.50
2019-03-10T15:29:36.388Z,9.20
2019-03-10T15:32:06.083Z,9.20
2019-03-10T15:34:36.788Z,8.90
2019-03-10T15:37:08.591Z,8.90
2019-03-10T15:39:38.911Z,8.90
2019-03-10T15:42:09.004Z,8.80
2019-03-10T15:44:38.615Z,8.90
2019-03-10T15:47:08.251Z,8.90
2019-03-10T15:49:37.976Z,8.90
2019-03-10T15:52:07.746Z,8.50
2019-03-10T15:54:37.351Z,8.40
2019-03-10T15:57:07.083Z,8.40
2019-03-10T15:59:36.722Z,8.20
2019-03-10T16:02:06.415Z,8.30
2019-03-10T16:04:36.132Z,8.50
2019-03-10T16:07:07.031Z,8.40
2019-03-10T16:09:36.668Z,8.20
2019-03-10T16:12:06.743Z,8.20
2019-03-10T16:14:36.351Z,8.00
2019-03-10T16:17:06.075Z,7.80
2019-03-10T16:19:36.044Z,7.70
2019-03-10T16:22:07.023Z,7.70
2019-03-10T16:24:36.691Z,7.10
2019-03-10T16:27:06.987Z,7.00
2019-03-10T16:29:36.712Z,6.80
2019-03-10T16:32:06.438Z,6.80
2019-03-10T16:34:36.371Z,7.10
2019-03-10T16:37:06.627Z,6.80
2019-03-10T16:39:36.455Z,6.60
2019-03-10T16:42:06.671Z,6.70
2019-03-10T16:44:36.275Z,6.70
2019-03-10T16:47:06.002Z,6.80
2019-03-10T16:49:35.771Z,6.90
2019-03-10T16:52:06.015Z,6.70
2019-03-10T16:54:37.109Z,6.60
2019-03-10T16:57:08.563Z,6.60
2019-03-10T16:59:39.460Z,6.60
2019-03-10T17:07:07.219Z,6.40
2019-03-10T17:09:42.457Z,7.00
2019-03-10T17:12:13.276Z,7.00
2019-03-10T17:14:43.968Z,8.00
2019-03-10T17:17:14.670Z,7.50
2019-03-10T17:19:47.839Z,7.20
2019-03-10T17:22:18.589Z,7.80
2019-03-10T17:24:48.131Z,7.40
2019-03-10T17:27:17.837Z,6.90
2019-03-10T17:29:47.384Z,8.10
2019-03-10T17:32:17.525Z,7.20
2019-03-10T17:34:48.891Z,7.10
2019-03-10T17:37:18.503Z,7.40
2019-03-10T17:39:48.360Z,7.20
2019-03-10T17:42:18.023Z,6.70
2019-03-10T17:47:18.099Z,7.00
2019-03-10T17:49:51.161Z,7.40
2019-03-10T17:52:20.831Z,7.60
2019-03-10T17:54:50.570Z,7.30
2019-03-10T17:57:20.429Z,8.00
2019-03-10T17:59:52.684Z,7.10
2019-03-10T18:02:22.260Z,6.80
2019-03-10T18:07:21.287Z,6.60
2019-03-10T18:09:51.054Z,7.40
2019-03-10T18:12:20.767Z,7.00
2019-03-10T18:14:53.247Z,6.80
2019-03-10T18:17:24.167Z,6.80
2019-03-10T18:19:53.793Z,7.10
2019-03-10T18:22:24.981Z,6.90
2019-03-10T18:24:55.847Z,6.80
2019-03-10T18:27:25.548Z,7.30
2019-03-10T18:29:55.195Z,7.30
2019-03-10T18:32:24.879Z,7.10
2019-03-10T18:34:54.605Z,7.10
2019-03-10T18:37:24.234Z,6.80
2019-03-10T18:39:54.370Z,6.70
2019-03-10T18:42:24.270Z,6.70
2019-03-10T18:44:55.119Z,7.10
2019-03-10T18:47:24.896Z,6.70
2019-03-10T18:49:55.526Z,6.50
2019-03-10T18:52:26.670Z,6.50
2019-03-10T18:54:56.411Z,6.30
2019-03-10T18:57:26.324Z,6.90
2019-03-10T18:59:57.908Z,6.70
2019-03-10T19:02:27.639Z,6.60
2019-03-10T19:04:57.249Z,6.50
2019-03-10T19:07:26.989Z,6.20
2019-03-10T19:09:58.259Z,6.50
2019-03-10T19:12:29.279Z,6.70
2019-03-10T19:15:01.873Z,6.90
2019-03-10T19:17:31.813Z,6.70
2019-03-10T19:20:02.086Z,7.30
2019-03-10T19:22:31.956Z,7.60
2019-03-10T19:25:01.623Z,6.90
2019-03-10T19:27:31.526Z,6.70
2019-03-10T19:30:01.692Z,7.10
2019-03-10T19:32:31.616Z,7.40
2019-03-10T19:35:03.145Z,8.60
2019-03-10T19:37:34.657Z,8.30
2019-03-10T19:40:04.774Z,6.90
2019-03-10T19:42:34.555Z,7.40
2019-03-10T19:45:04.492Z,7.60
2019-03-10T19:47:34.524Z,7.70
2019-03-10T19:50:04.436Z,8.30
2019-03-10T19:52:34.143Z,8.30
2019-03-10T19:55:06.206Z,7.40
2019-03-10T19:57:35.904Z,7.00
2019-03-10T20:00:08.979Z,6.90
2019-03-10T20:02:38.711Z,6.60
2019-03-10T20:05:08.650Z,6.20
2019-03-10T20:10:07.563Z,5.10
2019-03-10T20:12:38.159Z,3.80
2019-03-10T20:15:09.725Z,3.90
2019-03-10T20:17:39.447Z,3.60
2019-03-10T20:20:11.220Z,5.30
2019-03-10T20:22:42.567Z,7.00
2019-03-10T20:25:13.495Z,6.80
2019-03-10T20:27:44.924Z,7.70
2019-03-10T20:30:18.558Z,7.70
2019-03-10T20:32:48.300Z,9.20
2019-03-10T20:35:18.549Z,9.20
2019-03-10T20:37:49.348Z,9.70
2019-03-10T20:40:20.056Z,9.50
2019-03-10T20:42:52.814Z,9.00
2019-03-10T20:45:24.437Z,9.50
2019-03-10T20:47:56.340Z,10.20
2019-03-10T20:50:25.217Z,9.50
2019-03-10T20:52:55.930Z,9.20
2019-03-10T20:55:26.731Z,10.40
2019-03-10T20:57:56.347Z,10.60
2019-03-10T21:00:26.154Z,10.80
2019-03-10T21:02:56.039Z,10.50
2019-03-10T21:05:25.907Z,11.00
2019-03-10T21:07:58.851Z,11.10
2019-03-10T21:10:28.447Z,10.80
2019-03-10T21:12:58.119Z,9.50
2019-03-10T21:15:27.921Z,9.30
2019-03-10T21:18:00.966Z,10.40
2019-03-10T21:20:30.610Z,9.50
2019-03-10T21:23:01.338Z,9.00
2019-03-10T21:25:30.956Z,10.00
2019-03-10T21:28:00.769Z,10.40
2019-03-10T21:30:33.295Z,10.50
2019-03-10T21:33:02.989Z,10.60
2019-03-10T21:35:34.417Z,10.00
2019-03-10T21:38:05.478Z,9.60
2019-03-10T21:40:35.101Z,9.90
2019-03-10T21:43:04.861Z,9.40
2019-03-10T21:45:34.521Z,9.90
2019-03-10T21:48:04.319Z,10.00
2019-03-10T21:50:33.902Z,9.50
2019-03-10T21:53:03.724Z,9.70
2019-03-10T21:55:33.320Z,10.00
2019-03-10T21:58:03.172Z,9.70
2019-03-10T22:00:33.164Z,10.40
2019-03-10T22:03:02.835Z,10.40
2019-03-10T22:05:33.116Z,10.40
2019-03-10T22:08:03.103Z,10.40
2019-03-10T22:13:01.671Z,9.60
2019-03-10T22:15:41.295Z,8.70
2019-03-10T22:18:02.611Z,8.90
2019-03-10T22:20:32.213Z,9.50
2019-03-10T22:23:01.856Z,9.40
2019-03-10T22:25:31.503Z,9.30
2019-03-10T22:28:02.802Z,8.40
2019-03-10T22:30:32.623Z,7.60
2019-03-10T22:33:02.312Z,7.90
2019-03-10T22:35:32.066Z,7.90
2019-03-10T22:38:01.688Z,7.10
2019-03-10T22:40:31.945Z,7.80
2019-03-10T22:43:01.633Z,7.50
2019-03-10T22:45:32.212Z,8.20
2019-03-10T22:48:01.750Z,8.00
2019-03-10T22:50:31.423Z,8.00
2019-03-10T22:53:01.073Z,7.40
2019-03-10T23:00:44.811Z,6.90
2019-03-10T23:03:14.925Z,5.70
2019-03-10T23:05:45.140Z,5.80
2019-03-10T23:08:15.883Z,5.80
2019-03-10T23:10:45.816Z,5.50
2019-03-10T23:13:15.576Z,5.40
2019-03-10T23:15:46.308Z,5.50
2019-03-10T23:18:16.151Z,5.90
2019-03-10T23:20:45.829Z,5.50
2019-03-10T23:23:17.040Z,5.70
2019-03-10T23:25:46.963Z,6.30
2019-03-10T23:28:16.555Z,6.40
2019-03-10T23:30:46.403Z,6.60
2019-03-10T23:33:16.586Z,7.70
2019-03-10T23:35:46.695Z,7.70
2019-03-10T23:38:17.240Z,6.80
2019-03-10T23:40:47.888Z,7.70
2019-03-10T23:43:17.419Z,7.80
2019-03-10T23:45:48.439Z,7.40
2019-03-10T23:48:17.980Z,8.00
2019-03-10T23:50:47.695Z,7.60
2019-03-10T23:53:17.568Z,8.30
2019-03-10T23:55:48.927Z,9.40
2019-03-10T23:58:19.386Z,10.20
